sensor_id;sensor_type;location;lat;lon;timestamp;P1;durP1;ratioP1;P2;durP2;ratioP2
57263;SDS011;43113;53.124;6.092;2022-08-03T00:01:36;3.60;;;1.58;;
57263;SDS011;43113;53.124;6.092;2022-08-03T00:04:04;2.05;;;1.10;;
57263;SDS011;43113;53.124;6.092;2022-08-03T00:06:31;5.53;;;1.40;;
57263;SDS011;43113;53.124;6.092;2022-08-03T00:08:57;2.38;;;1.30;;
57263;SDS011;43113;53.124;6.092;2022-08-03T00:11:22;3.83;;;1.10;;
57263;SDS011;43113;53.124;6.092;2022-08-03T00:13:48;1.90;;;1.10;;
57263;SDS011;43113;53.124;6.092;2022-08-03T00:16:14;4.18;;;1.52;;
57263;SDS011;43113;53.124;6.092;2022-08-03T00:18:40;2.38;;;1.45;;
57263;SDS011;43113;53.124;6.092;2022-08-03T00:21:07;3.85;;;1.25;;
57263;SDS011;43113;53.124;6.092;2022-08-03T00:23:32;2.47;;;1.50;;
57263;SDS011;43113;53.124;6.092;2022-08-03T00:25:58;2.83;;;1.20;;
57263;SDS011;43113;53.124;6.092;2022-08-03T00:28:25;1.98;;;1.08;;
57263;SDS011;43113;53.124;6.092;2022-08-03T00:30:50;3.58;;;1.80;;
57263;SDS011;43113;53.124;6.092;2022-08-03T00:33:16;2.90;;;1.33;;
57263;SDS011;43113;53.124;6.092;2022-08-03T00:35:42;4.43;;;1.10;;
57263;SDS011;43113;53.124;6.092;2022-08-03T00:38:08;1.98;;;0.75;;
57263;SDS011;43113;53.124;6.092;2022-08-03T00:40:33;1.83;;;1.15;;
57263;SDS011;43113;53.124;6.092;2022-08-03T00:43:00;1.85;;;1.15;;
57263;SDS011;43113;53.124;6.092;2022-08-03T00:45:38;1.88;;;1.10;;
57263;SDS011;43113;53.124;6.092;2022-08-03T00:48:05;3.95;;;1.30;;
57263;SDS011;43113;53.124;6.092;2022-08-03T00:50:37;3.10;;;1.33;;
57263;SDS011;43113;53.124;6.092;2022-08-03T00:53:05;4.05;;;1.40;;
57263;SDS011;43113;53.124;6.092;2022-08-03T00:55:32;3.05;;;1.30;;
57263;SDS011;43113;53.124;6.092;2022-08-03T00:58:00;2.00;;;1.00;;
57263;SDS011;43113;53.124;6.092;2022-08-03T01:00:30;2.28;;;1.20;;
57263;SDS011;43113;53.124;6.092;2022-08-03T01:02:57;2.15;;;1.30;;
57263;SDS011;43113;53.124;6.092;2022-08-03T01:05:22;4.43;;;1.40;;
57263;SDS011;43113;53.124;6.092;2022-08-03T01:10:35;2.53;;;1.38;;
57263;SDS011;43113;53.124;6.092;2022-08-03T01:13:20;3.00;;;1.10;;
57263;SDS011;43113;53.124;6.092;2022-08-03T01:15:55;3.97;;;1.17;;
57263;SDS011;43113;53.124;6.092;2022-08-03T01:18:29;3.80;;;1.10;;
57263;SDS011;43113;53.124;6.092;2022-08-03T01:21:11;4.93;;;1.20;;
57263;SDS011;43113;53.124;6.092;2022-08-03T01:24:05;1.65;;;0.63;;
57263;SDS011;43113;53.124;6.092;2022-08-03T01:35:03;2.17;;;1.15;;
57263;SDS011;43113;53.124;6.092;2022-08-03T01:37:38;2.30;;;1.00;;
57263;SDS011;43113;53.124;6.092;2022-08-03T01:40:08;4.65;;;1.40;;
57263;SDS011;43113;53.124;6.092;2022-08-03T01:42:35;3.22;;;1.20;;
57263;SDS011;43113;53.124;6.092;2022-08-03T01:45:02;5.10;;;1.17;;
57263;SDS011;43113;53.124;6.092;2022-08-03T01:47:29;3.55;;;1.30;;
57263;SDS011;43113;53.124;6.092;2022-08-03T01:49:56;4.28;;;1.55;;
57263;SDS011;43113;53.124;6.092;2022-08-03T01:52:24;2.55;;;1.27;;
57263;SDS011;43113;53.124;6.092;2022-08-03T01:54:51;2.08;;;1.10;;
57263;SDS011;43113;53.124;6.092;2022-08-03T01:57:18;1.67;;;1.10;;
57263;SDS011;43113;53.124;6.092;2022-08-03T01:59:45;3.08;;;1.20;;
57263;SDS011;43113;53.124;6.092;2022-08-03T02:02:14;3.42;;;1.08;;
57263;SDS011;43113;53.124;6.092;2022-08-03T02:04:41;2.58;;;0.90;;
57263;SDS011;43113;53.124;6.092;2022-08-03T02:07:09;4.43;;;1.20;;
57263;SDS011;43113;53.124;6.092;2022-08-03T02:09:36;2.83;;;1.00;;
57263;SDS011;43113;53.124;6.092;2022-08-03T02:12:06;4.65;;;1.33;;
57263;SDS011;43113;53.124;6.092;2022-08-03T02:14:34;1.67;;;0.70;;
57263;SDS011;43113;53.124;6.092;2022-08-03T02:17:01;2.17;;;0.88;;
57263;SDS011;43113;53.124;6.092;2022-08-03T02:19:28;3.42;;;0.80;;
57263;SDS011;43113;53.124;6.092;2022-08-03T02:21:56;4.80;;;1.17;;
57263;SDS011;43113;53.124;6.092;2022-08-03T02:24:22;5.43;;;1.50;;
57263;SDS011;43113;53.124;6.092;2022-08-03T02:26:48;3.60;;;1.15;;
57263;SDS011;43113;53.124;6.092;2022-08-03T02:29:19;3.83;;;1.48;;
57263;SDS011;43113;53.124;6.092;2022-08-03T02:31:48;2.60;;;1.10;;
57263;SDS011;43113;53.124;6.092;2022-08-03T02:34:15;4.95;;;1.10;;
57263;SDS011;43113;53.124;6.092;2022-08-03T02:36:45;6.47;;;1.40;;
57263;SDS011;43113;53.124;6.092;2022-08-03T02:39:15;2.55;;;0.90;;
57263;SDS011;43113;53.124;6.092;2022-08-03T02:41:47;2.90;;;1.10;;
57263;SDS011;43113;53.124;6.092;2022-08-03T02:44:16;4.05;;;1.05;;
57263;SDS011;43113;53.124;6.092;2022-08-03T02:46:45;3.92;;;1.33;;
57263;SDS011;43113;53.124;6.092;2022-08-03T02:49:14;2.55;;;1.20;;
57263;SDS011;43113;53.124;6.092;2022-08-03T02:51:42;5.15;;;1.38;;
57263;SDS011;43113;53.124;6.092;2022-08-03T02:54:11;3.10;;;1.75;;
57263;SDS011;43113;53.124;6.092;2022-08-03T02:56:42;2.97;;;1.08;;
57263;SDS011;43113;53.124;6.092;2022-08-03T02:59:09;6.88;;;1.05;;
57263;SDS011;43113;53.124;6.092;2022-08-03T03:01:36;2.40;;;1.48;;
57263;SDS011;43113;53.124;6.092;2022-08-03T03:04:03;3.97;;;1.52;;
57263;SDS011;43113;53.124;6.092;2022-08-03T03:06:30;2.88;;;1.05;;
57263;SDS011;43113;53.124;6.092;2022-08-03T03:08:56;2.97;;;1.67;;
57263;SDS011;43113;53.124;6.092;2022-08-03T03:11:23;2.67;;;1.00;;
57263;SDS011;43113;53.124;6.092;2022-08-03T03:13:50;2.38;;;1.33;;
57263;SDS011;43113;53.124;6.092;2022-08-03T03:16:16;4.35;;;1.58;;
57263;SDS011;43113;53.124;6.092;2022-08-03T03:18:43;5.45;;;1.15;;
57263;SDS011;43113;53.124;6.092;2022-08-03T03:21:11;3.55;;;1.50;;
57263;SDS011;43113;53.124;6.092;2022-08-03T03:23:40;4.10;;;1.35;;
57263;SDS011;43113;53.124;6.092;2022-08-03T03:26:06;3.13;;;1.17;;
57263;SDS011;43113;53.124;6.092;2022-08-03T03:28:33;3.83;;;1.15;;
57263;SDS011;43113;53.124;6.092;2022-08-03T03:31:03;3.67;;;0.85;;
57263;SDS011;43113;53.124;6.092;2022-08-03T03:33:30;2.50;;;1.15;;
57263;SDS011;43113;53.124;6.092;2022-08-03T03:35:58;5.93;;;1.20;;
57263;SDS011;43113;53.124;6.092;2022-08-03T03:38:24;6.18;;;2.03;;
57263;SDS011;43113;53.124;6.092;2022-08-03T03:40:49;2.15;;;0.95;;
57263;SDS011;43113;53.124;6.092;2022-08-03T03:43:16;2.35;;;1.10;;
57263;SDS011;43113;53.124;6.092;2022-08-03T03:45:45;2.63;;;1.67;;
57263;SDS011;43113;53.124;6.092;2022-08-03T03:48:11;4.05;;;1.30;;
57263;SDS011;43113;53.124;6.092;2022-08-03T03:50:37;2.08;;;1.40;;
57263;SDS011;43113;53.124;6.092;2022-08-03T03:53:07;4.97;;;1.30;;
57263;SDS011;43113;53.124;6.092;2022-08-03T03:55:34;2.72;;;1.33;;
57263;SDS011;43113;53.124;6.092;2022-08-03T03:58:01;2.05;;;1.02;;
57263;SDS011;43113;53.124;6.092;2022-08-03T04:00:28;3.67;;;1.27;;
57263;SDS011;43113;53.124;6.092;2022-08-03T04:02:54;3.75;;;1.42;;
57263;SDS011;43113;53.124;6.092;2022-08-03T04:05:20;2.13;;;1.13;;
57263;SDS011;43113;53.124;6.092;2022-08-03T04:11:04;2.53;;;2.00;;
57263;SDS011;43113;53.124;6.092;2022-08-03T04:13:40;3.97;;;1.10;;
57263;SDS011;43113;53.124;6.092;2022-08-03T04:16:14;3.45;;;1.88;;
57263;SDS011;43113;53.124;6.092;2022-08-03T04:18:42;4.32;;;1.20;;
57263;SDS011;43113;53.124;6.092;2022-08-03T04:21:12;3.38;;;1.45;;
57263;SDS011;43113;53.124;6.092;2022-08-03T04:23:45;2.97;;;1.35;;
57263;SDS011;43113;53.124;6.092;2022-08-03T04:26:14;4.13;;;1.80;;
57263;SDS011;43113;53.124;6.092;2022-08-03T04:28:45;5.30;;;1.90;;
57263;SDS011;43113;53.124;6.092;2022-08-03T04:31:13;5.97;;;1.73;;
57263;SDS011;43113;53.124;6.092;2022-08-03T04:33:41;2.45;;;1.70;;
57263;SDS011;43113;53.124;6.092;2022-08-03T04:36:09;2.95;;;1.45;;
57263;SDS011;43113;53.124;6.092;2022-08-03T04:38:40;4.35;;;1.33;;
57263;SDS011;43113;53.124;6.092;2022-08-03T04:41:14;3.45;;;1.27;;
57263;SDS011;43113;53.124;6.092;2022-08-03T04:43:41;3.13;;;1.60;;
57263;SDS011;43113;53.124;6.092;2022-08-03T04:46:07;2.60;;;1.20;;
57263;SDS011;43113;53.124;6.092;2022-08-03T04:48:34;3.28;;;1.55;;
57263;SDS011;43113;53.124;6.092;2022-08-03T04:51:00;4.30;;;1.50;;
57263;SDS011;43113;53.124;6.092;2022-08-03T04:53:28;8.05;;;1.50;;
57263;SDS011;43113;53.124;6.092;2022-08-03T04:55:54;7.93;;;1.98;;
57263;SDS011;43113;53.124;6.092;2022-08-03T04:58:27;2.78;;;1.15;;
57263;SDS011;43113;53.124;6.092;2022-08-03T05:00:53;2.42;;;1.10;;
57263;SDS011;43113;53.124;6.092;2022-08-03T05:03:18;5.28;;;1.45;;
57263;SDS011;43113;53.124;6.092;2022-08-03T05:05:44;5.78;;;1.67;;
57263;SDS011;43113;53.124;6.092;2022-08-03T05:08:10;2.78;;;1.15;;
57263;SDS011;43113;53.124;6.092;2022-08-03T05:10:36;3.40;;;1.75;;
57263;SDS011;43113;53.124;6.092;2022-08-03T05:13:01;6.32;;;1.60;;
57263;SDS011;43113;53.124;6.092;2022-08-03T05:15:28;3.25;;;1.42;;
57263;SDS011;43113;53.124;6.092;2022-08-03T05:17:54;4.22;;;1.42;;
57263;SDS011;43113;53.124;6.092;2022-08-03T05:20:19;5.53;;;1.92;;
57263;SDS011;43113;53.124;6.092;2022-08-03T05:22:45;6.03;;;1.92;;
57263;SDS011;43113;53.124;6.092;2022-08-03T05:25:11;3.17;;;1.42;;
57263;SDS011;43113;53.124;6.092;2022-08-03T05:27:36;4.10;;;1.83;;
57263;SDS011;43113;53.124;6.092;2022-08-03T05:30:02;6.10;;;1.80;;
57263;SDS011;43113;53.124;6.092;2022-08-03T05:32:28;10.18;;;1.35;;
57263;SDS011;43113;53.124;6.092;2022-08-03T05:34:54;5.65;;;1.30;;
57263;SDS011;43113;53.124;6.092;2022-08-03T05:37:20;3.80;;;1.60;;
57263;SDS011;43113;53.124;6.092;2022-08-03T05:39:45;4.45;;;1.27;;
57263;SDS011;43113;53.124;6.092;2022-08-03T05:42:13;4.28;;;1.40;;
57263;SDS011;43113;53.124;6.092;2022-08-03T05:44:40;4.97;;;1.20;;
57263;SDS011;43113;53.124;6.092;2022-08-03T05:47:06;4.13;;;1.25;;
57263;SDS011;43113;53.124;6.092;2022-08-03T05:49:32;4.78;;;1.23;;
57263;SDS011;43113;53.124;6.092;2022-08-03T05:51:57;2.80;;;1.15;;
57263;SDS011;43113;53.124;6.092;2022-08-03T05:54:23;5.28;;;1.67;;
57263;SDS011;43113;53.124;6.092;2022-08-03T05:56:49;4.22;;;1.55;;
57263;SDS011;43113;53.124;6.092;2022-08-03T05:59:14;3.63;;;1.70;;
57263;SDS011;43113;53.124;6.092;2022-08-03T06:01:40;6.35;;;1.00;;
57263;SDS011;43113;53.124;6.092;2022-08-03T06:04:06;2.97;;;1.23;;
57263;SDS011;43113;53.124;6.092;2022-08-03T06:06:32;3.05;;;1.08;;
57263;SDS011;43113;53.124;6.092;2022-08-03T06:08:57;7.22;;;1.20;;
57263;SDS011;43113;53.124;6.092;2022-08-03T06:11:23;2.78;;;1.27;;
57263;SDS011;43113;53.124;6.092;2022-08-03T06:13:49;3.95;;;1.60;;
57263;SDS011;43113;53.124;6.092;2022-08-03T06:16:14;2.90;;;1.35;;
57263;SDS011;43113;53.124;6.092;2022-08-03T06:18:40;7.18;;;1.58;;
57263;SDS011;43113;53.124;6.092;2022-08-03T06:21:06;3.00;;;1.45;;
57263;SDS011;43113;53.124;6.092;2022-08-03T06:23:31;4.78;;;2.03;;
57263;SDS011;43113;53.124;6.092;2022-08-03T06:25:57;4.18;;;1.52;;
57263;SDS011;43113;53.124;6.092;2022-08-03T06:28:23;5.53;;;1.33;;
57263;SDS011;43113;53.124;6.092;2022-08-03T06:30:49;3.38;;;1.40;;
57263;SDS011;43113;53.124;6.092;2022-08-03T06:33:15;5.55;;;1.55;;
57263;SDS011;43113;53.124;6.092;2022-08-03T06:35:41;6.93;;;1.55;;
57263;SDS011;43113;53.124;6.092;2022-08-03T06:38:06;4.70;;;2.10;;
57263;SDS011;43113;53.124;6.092;2022-08-03T06:40:34;7.22;;;2.05;;
57263;SDS011;43113;53.124;6.092;2022-08-03T06:43:03;5.38;;;1.40;;
57263;SDS011;43113;53.124;6.092;2022-08-03T06:45:30;3.20;;;1.60;;
57263;SDS011;43113;53.124;6.092;2022-08-03T06:48:07;2.83;;;1.65;;
57263;SDS011;43113;53.124;6.092;2022-08-03T06:50:37;5.60;;;2.25;;
57263;SDS011;43113;53.124;6.092;2022-08-03T06:53:05;7.43;;;2.42;;
57263;SDS011;43113;53.124;6.092;2022-08-03T06:55:31;12.80;;;2.25;;
57263;SDS011;43113;53.124;6.092;2022-08-03T06:57:57;5.60;;;1.88;;
57263;SDS011;43113;53.124;6.092;2022-08-03T07:00:24;8.27;;;2.45;;
57263;SDS011;43113;53.124;6.092;2022-08-03T07:02:50;5.05;;;1.60;;
57263;SDS011;43113;53.124;6.092;2022-08-03T07:05:16;4.45;;;1.70;;
57263;SDS011;43113;53.124;6.092;2022-08-03T07:07:42;3.55;;;1.85;;
57263;SDS011;43113;53.124;6.092;2022-08-03T07:10:08;4.60;;;2.10;;
57263;SDS011;43113;53.124;6.092;2022-08-03T07:12:35;4.85;;;2.10;;
57263;SDS011;43113;53.124;6.092;2022-08-03T07:15:02;5.63;;;1.67;;
57263;SDS011;43113;53.124;6.092;2022-08-03T07:17:30;4.30;;;2.33;;
57263;SDS011;43113;53.124;6.092;2022-08-03T07:19:56;5.25;;;1.65;;
57263;SDS011;43113;53.124;6.092;2022-08-03T07:22:23;5.07;;;1.60;;
57263;SDS011;43113;53.124;6.092;2022-08-03T07:24:48;4.13;;;2.17;;
57263;SDS011;43113;53.124;6.092;2022-08-03T07:27:14;7.47;;;2.40;;
57263;SDS011;43113;53.124;6.092;2022-08-03T07:29:40;8.25;;;2.22;;
57263;SDS011;43113;53.124;6.092;2022-08-03T07:32:06;4.90;;;2.08;;
57263;SDS011;43113;53.124;6.092;2022-08-03T07:34:32;5.05;;;2.15;;
57263;SDS011;43113;53.124;6.092;2022-08-03T07:36:57;5.45;;;2.25;;
57263;SDS011;43113;53.124;6.092;2022-08-03T07:39:23;8.15;;;2.42;;
57263;SDS011;43113;53.124;6.092;2022-08-03T07:41:49;4.40;;;2.00;;
57263;SDS011;43113;53.124;6.092;2022-08-03T07:44:18;5.47;;;2.65;;
57263;SDS011;43113;53.124;6.092;2022-08-03T07:46:44;4.45;;;1.95;;
57263;SDS011;43113;53.124;6.092;2022-08-03T07:49:11;4.75;;;2.30;;
57263;SDS011;43113;53.124;6.092;2022-08-03T07:51:36;5.53;;;2.15;;
57263;SDS011;43113;53.124;6.092;2022-08-03T07:54:02;4.15;;;2.17;;
57263;SDS011;43113;53.124;6.092;2022-08-03T07:56:29;9.32;;;2.50;;
57263;SDS011;43113;53.124;6.092;2022-08-03T07:58:55;6.68;;;1.90;;
57263;SDS011;43113;53.124;6.092;2022-08-03T08:01:21;7.32;;;1.92;;
57263;SDS011;43113;53.124;6.092;2022-08-03T08:03:48;4.95;;;2.53;;
57263;SDS011;43113;53.124;6.092;2022-08-03T08:06:14;11.27;;;3.25;;
57263;SDS011;43113;53.124;6.092;2022-08-03T08:08:42;9.02;;;2.60;;
57263;SDS011;43113;53.124;6.092;2022-08-03T08:11:08;3.45;;;1.70;;
57263;SDS011;43113;53.124;6.092;2022-08-03T08:13:33;5.28;;;2.20;;
57263;SDS011;43113;53.124;6.092;2022-08-03T08:16:01;5.53;;;2.00;;
57263;SDS011;43113;53.124;6.092;2022-08-03T08:18:27;5.88;;;2.20;;
57263;SDS011;43113;53.124;6.092;2022-08-03T08:20:56;7.47;;;2.78;;
57263;SDS011;43113;53.124;6.092;2022-08-03T08:23:22;6.75;;;2.35;;
57263;SDS011;43113;53.124;6.092;2022-08-03T08:25:52;6.18;;;2.90;;
57263;SDS011;43113;53.124;6.092;2022-08-03T08:28:18;5.03;;;2.50;;
57263;SDS011;43113;53.124;6.092;2022-08-03T08:30:45;5.28;;;2.50;;
57263;SDS011;43113;53.124;6.092;2022-08-03T08:33:11;5.85;;;2.45;;
57263;SDS011;43113;53.124;6.092;2022-08-03T08:35:37;4.13;;;2.50;;
57263;SDS011;43113;53.124;6.092;2022-08-03T08:38:03;5.88;;;2.30;;
57263;SDS011;43113;53.124;6.092;2022-08-03T08:40:29;8.07;;;2.50;;
57263;SDS011;43113;53.124;6.092;2022-08-03T08:42:55;6.20;;;2.15;;
57263;SDS011;43113;53.124;6.092;2022-08-03T08:45:20;8.27;;;2.60;;
57263;SDS011;43113;53.124;6.092;2022-08-03T08:47:48;7.18;;;2.42;;
57263;SDS011;43113;53.124;6.092;2022-08-03T08:50:18;4.18;;;1.90;;
57263;SDS011;43113;53.124;6.092;2022-08-03T08:52:46;6.45;;;2.28;;
57263;SDS011;43113;53.124;6.092;2022-08-03T08:55:14;4.90;;;2.63;;
57263;SDS011;43113;53.124;6.092;2022-08-03T08:57:55;7.03;;;2.22;;
57263;SDS011;43113;53.124;6.092;2022-08-03T09:00:23;6.40;;;2.10;;
57263;SDS011;43113;53.124;6.092;2022-08-03T09:02:49;7.72;;;2.65;;
57263;SDS011;43113;53.124;6.092;2022-08-03T09:05:15;7.75;;;2.83;;
57263;SDS011;43113;53.124;6.092;2022-08-03T09:07:43;3.97;;;2.50;;
57263;SDS011;43113;53.124;6.092;2022-08-03T09:10:11;7.40;;;2.60;;
57263;SDS011;43113;53.124;6.092;2022-08-03T09:12:42;6.85;;;2.40;;
57263;SDS011;43113;53.124;6.092;2022-08-03T09:17:55;17.13;;;2.75;;
57263;SDS011;43113;53.124;6.092;2022-08-03T09:20:23;6.65;;;2.45;;
57263;SDS011;43113;53.124;6.092;2022-08-03T09:25:25;7.82;;;2.50;;
57263;SDS011;43113;53.124;6.092;2022-08-03T09:28:03;7.47;;;2.42;;
57263;SDS011;43113;53.124;6.092;2022-08-03T09:30:32;7.45;;;3.05;;
57263;SDS011;43113;53.124;6.092;2022-08-03T09:33:06;6.72;;;2.60;;
57263;SDS011;43113;53.124;6.092;2022-08-03T09:35:39;4.18;;;2.40;;
57263;SDS011;43113;53.124;6.092;2022-08-03T09:38:13;5.80;;;2.90;;
57263;SDS011;43113;53.124;6.092;2022-08-03T09:40:44;5.65;;;2.63;;
57263;SDS011;43113;53.124;6.092;2022-08-03T09:43:11;7.07;;;3.42;;
57263;SDS011;43113;53.124;6.092;2022-08-03T09:45:37;7.05;;;2.50;;
57263;SDS011;43113;53.124;6.092;2022-08-03T09:53:16;6.13;;;2.75;;
57263;SDS011;43113;53.124;6.092;2022-08-03T09:56:15;7.97;;;2.97;;
57263;SDS011;43113;53.124;6.092;2022-08-03T09:58:38;6.18;;;2.60;;
57263;SDS011;43113;53.124;6.092;2022-08-03T10:01:11;7.53;;;3.05;;
57263;SDS011;43113;53.124;6.092;2022-08-03T10:03:37;9.98;;;2.50;;
57263;SDS011;43113;53.124;6.092;2022-08-03T10:06:19;5.93;;;2.85;;
57263;SDS011;43113;53.124;6.092;2022-08-03T10:08:46;8.45;;;2.47;;
57263;SDS011;43113;53.124;6.092;2022-08-03T10:11:36;5.75;;;3.00;;
57263;SDS011;43113;53.124;6.092;2022-08-03T10:14:03;7.45;;;2.63;;
57263;SDS011;43113;53.124;6.092;2022-08-03T10:16:35;9.07;;;3.22;;
57263;SDS011;43113;53.124;6.092;2022-08-03T10:19:03;5.25;;;2.53;;
57263;SDS011;43113;53.124;6.092;2022-08-03T10:21:32;7.13;;;3.10;;
57263;SDS011;43113;53.124;6.092;2022-08-03T10:24:06;8.35;;;3.05;;
57263;SDS011;43113;53.124;6.092;2022-08-03T10:26:33;8.68;;;3.58;;
57263;SDS011;43113;53.124;6.092;2022-08-03T10:29:03;11.00;;;2.97;;
57263;SDS011;43113;53.124;6.092;2022-08-03T10:31:39;7.57;;;3.47;;
57263;SDS011;43113;53.124;6.092;2022-08-03T10:34:14;6.95;;;2.72;;
57263;SDS011;43113;53.124;6.092;2022-08-03T10:36:43;8.13;;;3.85;;
57263;SDS011;43113;53.124;6.092;2022-08-03T10:39:11;6.93;;;2.85;;
57263;SDS011;43113;53.124;6.092;2022-08-03T10:41:39;10.32;;;3.33;;
57263;SDS011;43113;53.124;6.092;2022-08-03T10:44:12;10.90;;;3.70;;
57263;SDS011;43113;53.124;6.092;2022-08-03T10:46:42;9.60;;;3.08;;
57263;SDS011;43113;53.124;6.092;2022-08-03T10:49:17;6.47;;;2.55;;
57263;SDS011;43113;53.124;6.092;2022-08-03T10:51:44;6.90;;;2.72;;
57263;SDS011;43113;53.124;6.092;2022-08-03T10:57:43;7.45;;;2.78;;
57263;SDS011;43113;53.124;6.092;2022-08-03T11:05:26;7.95;;;2.53;;
57263;SDS011;43113;53.124;6.092;2022-08-03T11:10:49;7.28;;;2.45;;
57263;SDS011;43113;53.124;6.092;2022-08-03T11:13:18;11.27;;;2.88;;
57263;SDS011;43113;53.124;6.092;2022-08-03T11:15:46;11.45;;;2.53;;
57263;SDS011;43113;53.124;6.092;2022-08-03T11:18:13;5.38;;;2.53;;
57263;SDS011;43113;53.124;6.092;2022-08-03T11:23:41;9.48;;;2.72;;
57263;SDS011;43113;53.124;6.092;2022-08-03T11:26:15;7.22;;;2.22;;
57263;SDS011;43113;53.124;6.092;2022-08-03T11:28:46;9.02;;;2.58;;
57263;SDS011;43113;53.124;6.092;2022-08-03T11:34:06;6.28;;;2.63;;
57263;SDS011;43113;53.124;6.092;2022-08-03T11:39:37;8.05;;;2.92;;
57263;SDS011;43113;53.124;6.092;2022-08-03T11:44:58;6.68;;;2.58;;
57263;SDS011;43113;53.124;6.092;2022-08-03T11:47:25;8.32;;;2.05;;
57263;SDS011;43113;53.124;6.092;2022-08-03T11:49:54;10.95;;;2.25;;
57263;SDS011;43113;53.124;6.092;2022-08-03T11:52:23;9.05;;;2.25;;
57263;SDS011;43113;53.124;6.092;2022-08-03T11:54:52;7.50;;;2.25;;
57263;SDS011;43113;53.124;6.092;2022-08-03T11:57:32;6.75;;;2.08;;
57263;SDS011;43113;53.124;6.092;2022-08-03T11:59:59;5.68;;;1.80;;
57263;SDS011;43113;53.124;6.092;2022-08-03T12:02:24;7.72;;;2.85;;
57263;SDS011;43113;53.124;6.092;2022-08-03T12:04:52;13.15;;;3.05;;
57263;SDS011;43113;53.124;6.092;2022-08-03T12:07:18;10.68;;;2.50;;
57263;SDS011;43113;53.124;6.092;2022-08-03T12:12:36;7.03;;;2.45;;
57263;SDS011;43113;53.124;6.092;2022-08-03T12:15:03;7.40;;;1.88;;
57263;SDS011;43113;53.124;6.092;2022-08-03T12:17:33;6.78;;;2.13;;
57263;SDS011;43113;53.124;6.092;2022-08-03T12:20:03;6.03;;;2.10;;
57263;SDS011;43113;53.124;6.092;2022-08-03T12:22:37;6.90;;;2.60;;
57263;SDS011;43113;53.124;6.092;2022-08-03T12:25:04;7.45;;;2.40;;
57263;SDS011;43113;53.124;6.092;2022-08-03T12:27:32;5.32;;;1.83;;
57263;SDS011;43113;53.124;6.092;2022-08-03T12:29:59;7.22;;;2.05;;
57263;SDS011;43113;53.124;6.092;2022-08-03T12:32:26;6.68;;;2.90;;
57263;SDS011;43113;53.124;6.092;2022-08-03T12:34:53;7.93;;;1.95;;
57263;SDS011;43113;53.124;6.092;2022-08-03T12:37:23;9.65;;;2.30;;
57263;SDS011;43113;53.124;6.092;2022-08-03T12:39:50;7.40;;;2.65;;
57263;SDS011;43113;53.124;6.092;2022-08-03T12:42:17;6.22;;;2.35;;
57263;SDS011;43113;53.124;6.092;2022-08-03T12:44:43;8.77;;;2.95;;
57263;SDS011;43113;53.124;6.092;2022-08-03T12:47:09;9.25;;;2.90;;
57263;SDS011;43113;53.124;6.092;2022-08-03T12:49:46;10.93;;;3.42;;
57263;SDS011;43113;53.124;6.092;2022-08-03T12:52:14;8.10;;;3.05;;
57263;SDS011;43113;53.124;6.092;2022-08-03T12:54:40;12.77;;;2.67;;
57263;SDS011;43113;53.124;6.092;2022-08-03T12:57:08;11.25;;;3.13;;
57263;SDS011;43113;53.124;6.092;2022-08-03T12:59:36;6.70;;;2.75;;
57263;SDS011;43113;53.124;6.092;2022-08-03T13:02:27;7.47;;;3.10;;
57263;SDS011;43113;53.124;6.092;2022-08-03T13:07:19;7.78;;;2.83;;
57263;SDS011;43113;53.124;6.092;2022-08-03T13:09:46;7.47;;;2.40;;
57263;SDS011;43113;53.124;6.092;2022-08-03T13:12:21;12.20;;;3.10;;
57263;SDS011;43113;53.124;6.092;2022-08-03T13:14:50;6.05;;;2.50;;
57263;SDS011;43113;53.124;6.092;2022-08-03T13:17:17;5.13;;;2.10;;
57263;SDS011;43113;53.124;6.092;2022-08-03T13:19:44;4.88;;;2.20;;
57263;SDS011;43113;53.124;6.092;2022-08-03T13:24:40;8.05;;;3.58;;
57263;SDS011;43113;53.124;6.092;2022-08-03T13:27:07;6.40;;;2.58;;
57263;SDS011;43113;53.124;6.092;2022-08-03T13:29:33;8.30;;;2.83;;
57263;SDS011;43113;53.124;6.092;2022-08-03T13:32:02;7.03;;;2.90;;
57263;SDS011;43113;53.124;6.092;2022-08-03T13:34:29;8.80;;;2.35;;
57263;SDS011;43113;53.124;6.092;2022-08-03T13:36:54;4.28;;;2.10;;
57263;SDS011;43113;53.124;6.092;2022-08-03T13:39:20;6.75;;;2.53;;
57263;SDS011;43113;53.124;6.092;2022-08-03T13:41:46;14.48;;;3.25;;
57263;SDS011;43113;53.124;6.092;2022-08-03T13:44:12;8.18;;;2.63;;
57263;SDS011;43113;53.124;6.092;2022-08-03T13:46:38;8.07;;;2.22;;
57263;SDS011;43113;53.124;6.092;2022-08-03T13:49:05;6.63;;;2.33;;
57263;SDS011;43113;53.124;6.092;2022-08-03T13:51:31;6.32;;;2.92;;
57263;SDS011;43113;53.124;6.092;2022-08-03T13:53:57;12.98;;;3.00;;
57263;SDS011;43113;53.124;6.092;2022-08-03T13:56:27;7.63;;;2.30;;
57263;SDS011;43113;53.124;6.092;2022-08-03T13:58:53;8.32;;;2.30;;
57263;SDS011;43113;53.124;6.092;2022-08-03T14:01:19;8.32;;;2.63;;
57263;SDS011;43113;53.124;6.092;2022-08-03T14:03:45;6.78;;;2.72;;
57263;SDS011;43113;53.124;6.092;2022-08-03T14:06:14;5.80;;;2.15;;
57263;SDS011;43113;53.124;6.092;2022-08-03T14:08:40;6.88;;;2.50;;
57263;SDS011;43113;53.124;6.092;2022-08-03T14:11:06;7.43;;;2.60;;
57263;SDS011;43113;53.124;6.092;2022-08-03T14:13:31;8.57;;;2.70;;
57263;SDS011;43113;53.124;6.092;2022-08-03T14:15:57;5.82;;;2.65;;
57263;SDS011;43113;53.124;6.092;2022-08-03T14:18:23;4.97;;;2.53;;
57263;SDS011;43113;53.124;6.092;2022-08-03T14:20:49;6.82;;;2.17;;
57263;SDS011;43113;53.124;6.092;2022-08-03T14:23:14;8.40;;;3.08;;
57263;SDS011;43113;53.124;6.092;2022-08-03T14:25:41;5.78;;;2.42;;
57263;SDS011;43113;53.124;6.092;2022-08-03T14:28:06;9.35;;;2.88;;
57263;SDS011;43113;53.124;6.092;2022-08-03T14:30:32;5.85;;;1.98;;
57263;SDS011;43113;53.124;6.092;2022-08-03T14:32:59;7.22;;;2.15;;
57263;SDS011;43113;53.124;6.092;2022-08-03T14:35:24;5.68;;;2.47;;
57263;SDS011;43113;53.124;6.092;2022-08-03T14:37:50;9.02;;;2.35;;
57263;SDS011;43113;53.124;6.092;2022-08-03T14:40:19;7.63;;;2.50;;
57263;SDS011;43113;53.124;6.092;2022-08-03T14:42:45;7.78;;;2.58;;
57263;SDS011;43113;53.124;6.092;2022-08-03T14:45:11;4.68;;;2.40;;
57263;SDS011;43113;53.124;6.092;2022-08-03T14:47:37;6.28;;;2.55;;
57263;SDS011;43113;53.124;6.092;2022-08-03T14:50:04;7.00;;;2.30;;
57263;SDS011;43113;53.124;6.092;2022-08-03T14:52:31;8.73;;;2.25;;
57263;SDS011;43113;53.124;6.092;2022-08-03T14:54:58;5.93;;;2.25;;
57263;SDS011;43113;53.124;6.092;2022-08-03T14:57:24;5.13;;;2.60;;
57263;SDS011;43113;53.124;6.092;2022-08-03T14:59:50;8.63;;;3.55;;
57263;SDS011;43113;53.124;6.092;2022-08-03T15:02:16;5.00;;;2.55;;
57263;SDS011;43113;53.124;6.092;2022-08-03T15:04:41;6.50;;;2.63;;
57263;SDS011;43113;53.124;6.092;2022-08-03T15:07:07;10.95;;;2.97;;
57263;SDS011;43113;53.124;6.092;2022-08-03T15:09:33;7.28;;;2.80;;
57263;SDS011;43113;53.124;6.092;2022-08-03T15:11:59;7.93;;;2.80;;
57263;SDS011;43113;53.124;6.092;2022-08-03T15:14:24;8.15;;;2.42;;
57263;SDS011;43113;53.124;6.092;2022-08-03T15:16:50;6.85;;;3.03;;
57263;SDS011;43113;53.124;6.092;2022-08-03T15:19:16;5.75;;;2.20;;
57263;SDS011;43113;53.124;6.092;2022-08-03T15:21:42;10.85;;;2.92;;
57263;SDS011;43113;53.124;6.092;2022-08-03T15:24:07;5.38;;;2.40;;
57263;SDS011;43113;53.124;6.092;2022-08-03T15:26:33;8.38;;;2.55;;
57263;SDS011;43113;53.124;6.092;2022-08-03T15:28:59;5.72;;;2.30;;
57263;SDS011;43113;53.124;6.092;2022-08-03T15:31:25;5.72;;;2.67;;
57263;SDS011;43113;53.124;6.092;2022-08-03T15:33:50;13.07;;;2.78;;
57263;SDS011;43113;53.124;6.092;2022-08-03T15:36:16;5.55;;;2.10;;
57263;SDS011;43113;53.124;6.092;2022-08-03T15:38:43;6.15;;;2.00;;
57263;SDS011;43113;53.124;6.092;2022-08-03T15:41:09;5.82;;;2.50;;
57263;SDS011;43113;53.124;6.092;2022-08-03T15:43:36;3.38;;;1.85;;
57263;SDS011;43113;53.124;6.092;2022-08-03T15:46:01;5.45;;;2.78;;
57263;SDS011;43113;53.124;6.092;2022-08-03T15:48:27;7.22;;;2.72;;